Flight Track Log - Related Links

Times and Time Zones

All times are in EDT time to prevent confusion due to time zone crossing. See the TYR919 flight status page for this flight to view local times or setup timezone preferences in your user account.

Time Position Orientation Groundspeed Altitude Reporting Facility
EDT Latitude Longitude Course Direction KTS MPH feet Rate Location/Type
Thu 04:12:00 PM 48.0536 15.8268 264° West  Level Estimated
Thu 04:13:00 PM 48.0437 15.7031 263° West  Level Estimated
Thu 04:14:00 PM 48.0337 15.5795 263° West  Level Estimated
Thu 04:15:00 PM 48.0235 15.4560 263° West  Level Estimated
Thu 04:16:00 PM 48.0132 15.3325 263° West  Level Estimated
Thu 04:17:00 PM 48.0028 15.2090 263° West  Level Estimated
Thu 04:18:00 PM 47.9922 15.0856 263° West  Level Estimated
Thu 04:19:00 PM 47.9815 14.9622 263° West  Level Estimated
Thu 04:20:00 PM 47.9707 14.8389 263° West  Level Estimated
Thu 04:21:00 PM 47.9597 14.7157 262° West  Level Estimated
Thu 04:22:00 PM 47.9486 14.5925 262° West  Level Estimated
Thu 04:23:00 PM 47.9374 14.4693 262° West  Level Estimated
Thu 04:24:00 PM 47.9260 14.3462 262° West  Level Estimated
Thu 04:25:00 PM 47.9145 14.2232 262° West  Level Estimated
Thu 04:26:00 PM 47.9029 14.1002 262° West  Level Estimated
Thu 04:27:00 PM 47.8912 13.9773 262° West  Level Estimated
Thu 04:28:00 PM 47.8793 13.8544 262° West  Level Estimated
Thu 04:29:00 PM 47.8672 13.7316 262° West  Level Estimated
Thu 04:30:00 PM 47.8551 13.6088 262° West  Level Estimated
Thu 04:31:00 PM 47.8428 13.4861 262° West  Level Estimated
Thu 04:32:00 PM 47.8304 13.3634 261° West  Level Estimated
Thu 04:33:00 PM 47.8179 13.2408 261° West  Level Estimated
Thu 04:34:00 PM 47.8052 13.1183 261° West  Level Estimated
Thu 04:35:00 PM 47.7933 13.0043 261° West  Level Estimated
Thu 04:36:00 PM 47.7933 13.0043 27° Northeast  Level Estimated
Thu 04:37:00 PM 47.7933 13.0043 27° Northeast  Level Estimated
Thu 04:38:00 PM 47.7933 13.0043 27° Northeast  Level Estimated
Thu 04:39:00 PM 47.7933 13.0043 27° Northeast  Level Estimated
Thu 04:40:00 PM 47.7933 13.0043 27° Northeast  Level Estimated
Thu 04:41:00 PM 47.7933 13.0043 27° Northeast  Level Estimated
Thu 04:42:00 PM 47.7933 13.0043 27° Northeast  Level Estimated

Login

Don't have an account? Register now (free) for customized features, flight alerts, and more!